Latest Weather Observations for Cape Bruny AWS

IDT60901

Issued at 12:25 pm EST Wednesday 24 September 2014 (issued every 10 minutes, with the page automatically refreshed every 10 minutes)

About weather observations | Map of Hobart area stations | Latest observations for Hobart area | Other Formats
Station Details ID: 094198 Name: CAPE BRUNY (CAPE BRUNY) Lat: -43.49 Lon: 147.14 Height: 59.7 m
Data from the previous 72 hours. | See also: Recent months at Cape Bruny AWS
Date/Time
EST
Tmp

°C
App
Tmp
°C
Dew
Point
°C
Rel
Hum
%
Delta-T

°C
Wind Press
QNH
hPa
Press
MSL
hPa
Rain
since
9 am
mm
Dir
 
Spd
km/h
Gust
km/h
Spd
kts
Gust
kts
24/12:00pm 14.6 10.4 5.7 55 4.2 N 17 20 9 11 1012.3 1012.4 0.0
24/11:30am 14.3 10.3 6.6 60 3.7 N 17 19 9 10 1012.9 1013.0 0.0
24/11:00am 13.5 9.1 6.6 63 3.3 N 19 22 10 12 1013.3 1013.4 0.0
24/10:30am 13.2 8.6 6.3 63 3.3 N 20 26 11 14 1013.5 1013.6 0.0
24/10:00am 13.3 8.8 6.2 62 3.4 N 19 22 10 12 1014.0 1014.1 0.0
24/09:30am 14.2 9.8 5.0 54 4.3 N 17 20 9 11 1014.2 1014.3 0.0
24/09:00am 13.2 8.5 6.1 62 3.4 N 20 28 11 15 1014.4 1014.5 0.0
24/08:30am 13.7 8.4 4.8 55 4.1 N 22 30 12 16 1014.4 1014.5 0.0
24/08:00am 13.3 8.5 5.5 59 3.7 N 20 26 11 14 1014.4 1014.5 0.0
24/07:30am 13.3 8.1 5.7 60 3.6 N 22 28 12 15 1014.6 1014.7 0.0
24/07:00am 12.6 8.0 6.4 66 3.0 N 20 28 11 15 1014.6 1014.7 0.0
24/06:30am 13.5 7.5 5.4 58 3.8 N 26 28 14 15 1014.6 1014.7 0.0
24/06:00am 14.7 8.7 3.2 46 5.2 N 24 33 13 18 1014.7 1014.8 0.0
24/05:30am 14.8 8.0 3.3 46 5.2 N 28 33 15 18 1014.8 1014.9 0.0
24/05:00am 13.5 9.0 4.4 54 4.2 N 17 20 9 11 1014.7 1014.8 0.0
24/04:30am 12.3 7.7 6.4 67 2.8 NNE 20 28 11 15 1014.8 1014.9 0.0
24/04:00am 13.1 8.3 5.8 61 3.4 N 20 32 11 17 1015.0 1015.1 0.0
24/03:30am 12.0 7.5 7.1 72 2.4 NNE 20 28 11 15 1015.4 1015.5 0.0
24/03:00am 12.2 7.9 6.9 70 2.5 NNE 19 28 10 15 1015.7 1015.8 0.0
24/02:30am 12.1 8.0 6.4 68 2.7 NNE 17 20 9 11 1015.8 1015.9 0.0
24/02:00am 12.0 8.7 6.5 69 2.6 NNE 13 19 7 10 1016.1 1016.2 0.0
24/01:30am 13.2 7.6 5.6 60 3.6 N 24 32 13 17 1016.5 1016.6 0.0
24/01:00am 14.5 8.5 3.6 48 5.0 N 24 33 13 18 1016.6 1016.7 0.0
24/12:30am 14.5 8.8 3.0 46 5.2 N 22 28 12 15 1016.9 1017.0 0.0
24/12:00am 14.0 8.7 2.9 47 5.0 N 20 26 11 14 1017.0 1017.1 0.0
 
Date/Time
EST
Tmp

°C
App
Tmp
°C
Dew
Point
°C
Rel
Hum
%
Delta-T

°C
Wind Press
QNH
hPa
Press
MSL
hPa
Rain
since
9 am
mm
Dir
 
Spd
km/h
Gust
km/h
Spd
kts
Gust
kts
23/11:30pm 12.5 7.7 2.7 51 4.3 N 17 20 9 11 1017.3 1017.4 0.0
23/11:00pm 14.5 9.6 1.8 42 5.6 N 17 24 9 13 1017.4 1017.5 0.0
23/10:30pm 16.2 10.3 -0.5 32 7.1 N 20 26 11 14 1017.6 1017.7 0.0
23/10:00pm 14.5 9.7 2.7 45 5.3 N 17 19 9 10 1017.8 1017.9 0.0
23/09:30pm 14.7 10.0 0.9 39 5.9 N 15 19 8 10 1018.1 1018.2 0.0
23/09:00pm 15.7 11.2 -0.1 34 6.7 N 13 15 7 8 1018.3 1018.4 0.0
23/08:30pm 18.9 12.4 -2.1 24 8.8 NNW 22 30 12 16 1018.3 1018.4 0.0
23/08:00pm 18.7 12.7 -1.2 26 8.5 NNW 20 30 11 16 1018.4 1018.5 0.0
23/07:30pm 20.2 12.7 -1.6 23 9.4 NW 28 33 15 18 1018.4 1018.5 0.0
23/07:00pm 19.8 13.2 -0.2 26 8.8 NNW 24 32 13 17 1018.4 1018.5 0.0
23/06:30pm 19.5 13.9 1.0 29 8.3 NNW 20 28 11 15 1018.3 1018.4 0.0
23/06:00pm 19.2 15.1 2.1 32 7.8 NNW 13 24 7 13 1018.3 1018.4 0.0
23/05:30pm 20.1 16.2 3.3 33 8.0 WNW 13 19 7 10 1018.4 1018.5 0.0
23/05:00pm 21.0 19.3 4.1 33 8.2 NNW 2 7 1 4 1018.2 1018.3 0.0
23/04:30pm 21.1 18.5 3.3 31 8.5 ENE 6 7 3 4 1018.3 1018.4 0.0
23/04:00pm 20.4 17.3 3.6 33 8.0 E 9 13 5 7 1018.5 1018.6 0.0
23/03:30pm 20.3 16.6 2.2 30 8.4 E 11 15 6 8 1018.5 1018.6 0.0
23/12:30pm 22.1 17.0 3.3 29 9.0 N 19 28 10 15 1020.4 1020.4 0.0
23/12:00pm 21.4 16.5 4.0 32 8.4 N 19 24 10 13 1020.8 1020.8 0.0
23/11:30am 21.1 16.0 3.3 31 8.5 NW 19 26 10 14 1021.1 1021.1 0.0
23/11:00am 19.8 16.1 6.2 41 6.8 NNW 15 20 8 11 1021.5 1021.5 0.0
23/10:30am 18.3 13.1 3.4 37 7.0 NNE 20 28 11 15 1021.9 1021.9 0.0
23/10:00am 17.4 12.0 2.2 36 6.9 N 20 28 11 15 1022.3 1022.3 0.0
23/09:30am 17.1 13.2 3.4 40 6.3 NE 13 17 7 9 1022.7 1022.7 0.0
23/09:00am 15.8 10.1 2.9 42 5.8 N 22 30 12 16 1022.7 1022.7 0.0
23/08:30am 14.8 8.9 3.9 48 5.0 N 24 33 13 18 1022.6 1022.6 0.0
23/08:00am 14.5 8.3 2.1 43 5.4 N 24 35 13 19 1022.5 1022.5 0.0
23/07:30am 14.4 10.9 1.0 40 5.8 NNW 9 20 5 11 1022.5 1022.5 0.0
23/07:00am 13.9 7.5 -1.7 34 6.3 NW 22 35 12 19 1022.2 1022.2 0.0
23/06:30am 13.0 6.8 -0.3 40 5.5 NW 22 33 12 18 1022.2 1022.2 0.0
23/06:00am 12.5 6.0 0.0 42 5.1 NNW 24 35 13 19 1021.7 1021.7 0.0
23/05:30am 10.7 3.2 3.5 61 3.2 N 32 35 17 19 1021.5 1021.5 0.0
23/05:00am 10.6 3.5 3.4 61 3.1 N 30 33 16 18 1021.4 1021.4 0.0
23/04:30am 11.4 3.6 1.9 52 4.1 N 32 35 17 19 1021.3 1021.3 0.0
23/04:00am 11.2 4.3 2.8 56 3.6 N 28 32 15 17 1021.6 1021.6 0.0
23/03:30am 11.1 3.3 1.9 53 3.9 N 32 37 17 20 1021.4 1021.4 0.0
23/03:00am 11.3 3.8 1.5 51 4.1 N 30 35 16 19 1021.8 1021.8 0.0
23/02:30am 11.6 3.8 2.6 54 3.9 N 33 37 18 20 1021.9 1021.9 0.0
23/02:00am 12.7 4.6 1.1 45 4.9 N 33 39 18 21 1021.9 1021.9 0.0
23/01:30am 13.4 4.6 -1.0 37 5.9 NNW 35 46 19 25 1022.5 1022.5 0.0
23/01:22am 13.4 5.9 -1.3 36 6.0 N 28 46 15 25 1022.5 1022.5 0.0
23/01:00am 10.9 5.0 2.0 54 3.8 N 22 30 12 16 1022.9 1022.9 0.0
23/12:30am 10.9 5.9 3.7 61 3.2 N 19 30 10 16 1022.8 1022.8 0.0
23/12:00am 13.8 7.7 0.5 40 5.6 NW 22 30 12 16 1022.7 1022.7 0.0
 
Date/Time
EST
Tmp

°C
App
Tmp
°C
Dew
Point
°C
Rel
Hum
%
Delta-T

°C
Wind Press
QNH
hPa
Press
MSL
hPa
Rain
since
9 am
mm
Dir
 
Spd
km/h
Gust
km/h
Spd
kts
Gust
kts
22/11:30pm 13.6 7.1 0.6 41 5.5 NW 24 30 13 16 1022.8 1022.8 0.0
22/11:00pm 11.8 6.9 2.0 51 4.2 NNW 17 24 9 13 1022.9 1022.9 0.0
22/10:30pm 12.1 8.9 2.8 53 4.1 N 9 17 5 9 1023.0 1023.0 0.0
22/10:00pm 11.7 10.2 4.9 63 3.1 NE 2 9 1 5 1023.1 1023.1 0.0
22/09:30pm 11.8 8.3 3.6 57 3.7 NNW 11 15 6 8 1022.9 1022.9 0.0
22/09:00pm 10.7 8.3 6.8 77 1.8 NE 9 13 5 7 1022.8 1022.8 0.0
22/08:30pm 11.1 9.5 8.1 82 1.5 ENE 6 7 3 4 1022.7 1022.7 0.0
22/08:00pm 10.7 8.7 8.8 88 0.9 E 9 13 5 7 1022.8 1022.8 0.0
22/07:30pm 11.1 8.4 8.8 86 1.1 ESE 13 17 7 9 1022.5 1022.5 0.0
22/07:00pm 11.3 8.9 8.5 83 1.4 ESE 11 15 6 8 1022.1 1022.1 0.0
22/06:30pm 11.3 8.5 8.5 83 1.4 E 13 19 7 10 1021.7 1021.7 0.0
22/06:00pm 11.4 8.6 8.6 83 1.4 E 13 15 7 8 1021.7 1021.7 0.0
22/05:30pm 11.9 9.1 8.7 81 1.6 E 13 15 7 8 1021.6 1021.6 0.0
22/05:00pm 12.6 10.3 8.9 78 1.9 E 11 15 6 8 1021.6 1021.6 0.0
22/04:30pm 13.1 10.7 8.8 75 2.2 ESE 11 15 6 8 1021.8 1021.8 0.0
22/04:00pm 13.2 10.1 8.9 75 2.2 ESE 15 19 8 10 1021.8 1021.8 0.0
22/03:30pm 13.8 10.6 8.4 70 2.7 ESE 15 19 8 10 1021.9 1021.9 0.0
22/03:00pm 13.8 10.9 8.2 69 2.8 ESE 13 19 7 10 1022.0 1022.0 0.0
22/02:30pm 13.1 9.9 8.4 73 2.3 ESE 15 19 8 10 1022.0 1022.0 0.0
22/02:00pm 13.8 10.7 9.0 73 2.4 ESE 15 19 8 10 1022.4 1022.4 0.0
22/01:30pm 13.7 11.1 7.9 68 2.9 ESE 11 15 6 8 1022.7 1022.7 0.0
22/01:00pm 14.3 11.8 8.0 66 3.1 E 11 13 6 7 1023.0 1023.0 0.0
22/12:30pm 14.2 12.0 7.9 66 3.1 SE 9 13 5 7 1023.6 1023.6 0.0
22/12:00pm 13.9 11.8 8.1 68 2.9 S 9 13 5 7 1024.1 1024.2 0.0
22/11:30am 13.1 10.2 8.0 71 2.5 S 13 15 7 8 1024.4 1024.5 0.0
22/11:00am 12.8 10.1 7.5 70 2.6 S 11 15 6 8 1024.7 1024.8 0.0
22/10:30am 12.8 10.8 7.3 69 2.7 W 7 11 4 6 1024.8 1024.9 0.0
22/10:00am 12.1 10.2 7.4 73 2.3 W 7 11 4 6 1025.0 1025.1 0.0
22/09:30am 11.3 8.9 6.8 74 2.1 W 9 13 5 7 1025.4 1025.5 0.0
22/09:00am 11.5 9.1 6.8 73 2.2 W 9 11 5 6 1025.6 1025.7 0.0
22/08:30am 11.9 9.4 6.6 70 2.5 SW 9 11 5 6 1025.7 1025.8 0.0
22/08:00am 10.7 6.3 6.5 75 2.0 N 19 26 10 14 1025.6 1025.7 0.0
22/07:30am 9.3 4.3 6.6 83 1.3 N 22 28 12 15 1025.7 1025.8 0.0
22/07:00am 8.4 3.3 6.2 86 1.0 N 22 28 12 15 1025.5 1025.6 0.0
22/06:30am 7.6 3.0 5.7 88 0.9 N 19 24 10 13 1025.6 1025.7 0.0
22/06:00am 7.5 2.7 5.8 89 0.8 N 20 28 11 15 1025.5 1025.6 0.0
22/05:30am 7.4 2.2 5.5 88 0.8 N 22 30 12 16 1025.3 1025.4 0.0
22/05:00am 7.3 3.5 5.8 90 0.7 N 15 24 8 13 1025.4 1025.5 0.0
22/04:30am 7.2 2.6 5.8 91 0.6 N 19 24 10 13 1025.2 1025.3 0.0
22/04:00am 7.1 2.8 5.4 89 0.8 N 17 20 9 11 1025.1 1025.2 0.0
22/03:30am 7.5 2.9 5.8 89 0.8 N 19 20 10 11 1025.5 1025.6 0.0
22/03:00am 7.5 3.7 5.8 89 0.8 N 15 19 8 10 1025.6 1025.7 0.0
22/02:30am 6.9 4.0 4.7 86 1.0 N 9 13 5 7 1025.8 1025.9 0.0
22/02:00am 7.3 4.1 4.9 85 1.1 N 11 11 6 6 1026.2 1026.3 0.0
22/01:30am 7.5 3.8 4.6 82 1.3 N 13 15 7 8 1026.3 1026.4 0.0
22/01:00am 8.5 5.7 5.1 79 1.5 N 9 11 5 6 1026.4 1026.5 0.0
22/12:30am 8.4 5.5 4.8 78 1.6 NW 9 15 5 8 1026.6 1026.7 0.0
22/12:00am 9.4 6.2 5.0 74 2.0 NW 11 17 6 9 1026.8 1026.9 0.0
 
Date/Time
EST
Tmp

°C
App
Tmp
°C
Dew
Point
°C
Rel
Hum
%
Delta-T

°C
Wind Press
QNH
hPa
Press
MSL
hPa
Rain
since
9 am
mm
Dir
 
Spd
km/h
Gust
km/h
Spd
kts
Gust
kts
21/11:30pm 10.0 5.2 4.8 70 2.3 WNW 19 26 10 14 1026.9 1027.0 0.0
21/11:00pm 9.9 5.8 4.5 69 2.4 NW 15 22 8 12 1027.0 1027.1 0.0
21/10:30pm 10.6 6.2 4.5 66 2.7 NW 17 24 9 13 1027.1 1027.2 0.0
21/10:00pm 10.8 6.0 4.7 66 2.7 NW 19 24 10 13 1027.4 1027.5 0.0
21/09:30pm 10.9 5.4 5.7 70 2.4 WNW 24 35 13 19 1027.6 1027.7 0.0
21/09:00pm 10.8 5.2 5.3 69 2.5 WNW 24 35 13 19 1027.4 1027.5 0.0
21/08:30pm 10.5 6.7 5.7 72 2.2 W 15 24 8 13 1027.4 1027.5 0.0
21/08:00pm 10.3 8.0 5.9 74 2.0 WNW 7 11 4 6 1027.3 1027.4 0.0
21/07:30pm 11.1 7.1 6.5 73 2.2 WSW 17 20 9 11 1027.0 1027.1 0.0
21/07:00pm 11.3 6.9 6.4 72 2.3 WSW 19 24 10 13 1026.7 1026.8 0.0
21/06:30pm 11.5 6.9 6.6 72 2.3 WSW 20 28 11 15 1026.5 1026.6 0.0
21/06:00pm 12.1 6.8 6.6 69 2.6 WSW 24 30 13 16 1026.3 1026.4 0.0
21/05:30pm 12.9 8.0 7.1 68 2.8 WSW 22 32 12 17 1026.0 1026.1 0.0
21/05:00pm 13.8 9.4 7.3 65 3.2 SW 20 28 11 15 1025.9 1026.0 0.0
21/04:30pm 14.9 10.7 7.5 61 3.7 WSW 19 30 10 16 1025.7 1025.8 0.0
21/04:00pm 15.2 10.5 7.7 61 3.7 WSW 22 30 12 16 1025.4 1025.5 0.0
21/03:30pm 15.4 9.4 7.2 58 4.1 WSW 28 39 15 21 1025.2 1025.3 0.0
21/03:00pm 15.9 9.5 7.1 56 4.3 WSW 30 41 16 22 1025.1 1025.2 0.0
21/02:30pm 16.2 9.8 6.9 54 4.6 WSW 30 43 16 23 1025.2 1025.3 0.0
21/02:00pm 16.3 12.1 8.3 59 4.0 W 20 30 11 16 1025.4 1025.5 0.0
21/01:30pm 16.4 10.4 7.1 54 4.6 WSW 28 39 15 21 1025.4 1025.5 0.0
21/01:00pm 17.0 11.9 7.6 54 4.7 WSW 24 32 13 17 1025.4 1025.5 0.0
21/12:30pm 16.9 12.9 6.7 51 5.0 WSW 17 22 9 12 1025.6 1025.7 0.0

Latest Capital City Observations: Canberra | Sydney | Melbourne | Brisbane | Adelaide | Perth | Hobart | Darwin

Other Formats:

Comma delimited format used in spreadsheet applications
http://www.bom.gov.au/fwo/IDT60901/IDT60901.95967.axf

JavaScript Object Notation format (JSON) in row-major order
http://www.bom.gov.au/fwo/IDT60901/IDT60901.95967.json